createdAt,value
2022-11-20T00:01:53.149Z,79.34
2022-11-20T00:04:21.892Z,79.28
2022-11-20T00:06:50.664Z,79.49
2022-11-20T00:09:19.590Z,79.53
2022-11-20T00:11:48.514Z,79.58
2022-11-20T00:14:17.755Z,79.76
2022-11-20T00:16:47.023Z,79.84
2022-11-20T00:19:16.570Z,79.79
2022-11-20T00:21:48.095Z,79.92
2022-11-20T00:24:17.027Z,79.92
2022-11-20T00:26:53.214Z,80.12
2022-11-20T00:29:23.369Z,80.12
2022-11-20T00:31:52.305Z,80.16
2022-11-20T00:34:20.960Z,80.20
2022-11-20T00:36:49.588Z,80.50
2022-11-20T00:39:18.808Z,80.46
2022-11-20T00:41:48.192Z,80.65
2022-11-20T00:44:16.836Z,80.70
2022-11-20T00:46:46.028Z,80.75
2022-11-20T00:49:14.640Z,80.77
2022-11-20T00:51:43.712Z,80.41
2022-11-20T00:54:12.427Z,80.48
2022-11-20T00:56:41.012Z,80.40
2022-11-20T00:59:11.694Z,80.26
2022-11-20T01:01:40.441Z,80.17
2022-11-20T01:04:09.240Z,80.18
2022-11-20T01:06:39.455Z,80.14
2022-11-20T01:09:12.326Z,80.06
2022-11-20T01:11:43.085Z,80.05
2022-11-20T01:14:14.519Z,79.98
2022-11-20T01:16:46.643Z,79.90
2022-11-20T01:19:18.077Z,79.84
2022-11-20T01:21:49.393Z,79.77
2022-11-20T01:24:20.517Z,79.66
2022-11-20T01:26:50.479Z,79.72
2022-11-20T01:29:21.430Z,79.73
2022-11-20T01:31:51.923Z,79.69
2022-11-20T01:34:22.640Z,79.69
2022-11-20T01:36:53.192Z,79.74
2022-11-20T01:39:24.719Z,79.74
2022-11-20T01:42:13.178Z,79.77
2022-11-20T01:44:57.090Z,79.78
2022-11-20T01:47:33.272Z,79.82
2022-11-20T01:50:07.832Z,79.86
2022-11-20T01:52:41.937Z,79.90
2022-11-20T01:55:15.832Z,79.86
2022-11-20T01:57:46.466Z,79.81
2022-11-20T02:00:18.931Z,79.78
2022-11-20T02:02:57.068Z,79.83
2022-11-20T02:05:29.495Z,79.76
2022-11-20T02:08:00.154Z,79.73
2022-11-20T02:10:31.363Z,79.70
2022-11-20T02:13:20.247Z,79.77
2022-11-20T02:15:51.739Z,79.77
2022-11-20T02:18:22.848Z,79.78
2022-11-20T02:20:59.945Z,79.77
2022-11-20T02:23:37.933Z,79.85
2022-11-20T02:26:12.156Z,79.84
2022-11-20T02:28:41.522Z,79.82
2022-11-20T02:31:10.272Z,79.84
2022-11-20T02:33:39.255Z,79.95
2022-11-20T02:36:12.323Z,80.02
2022-11-20T02:38:40.978Z,80.12
2022-11-20T02:41:10.112Z,80.08
2022-11-20T02:43:44.507Z,80.18
2022-11-20T02:46:15.216Z,80.17
2022-11-20T02:48:46.770Z,80.28
2022-11-20T02:51:19.534Z,80.27
2022-11-20T02:53:48.602Z,80.25
2022-11-20T02:56:17.493Z,80.53
2022-11-20T02:58:47.939Z,80.51
2022-11-20T03:01:16.521Z,80.40
2022-11-20T03:03:48.979Z,80.33
2022-11-20T03:06:20.326Z,80.47
2022-11-20T03:08:48.952Z,80.36
2022-11-20T03:11:17.687Z,80.32
2022-11-20T03:13:47.709Z,80.31
2022-11-20T03:16:19.052Z,80.17
2022-11-20T03:18:48.972Z,80.12
2022-11-20T03:21:17.864Z,80.20
2022-11-20T03:23:47.102Z,80.34
2022-11-20T03:26:17.421Z,80.43
2022-11-20T03:28:50.170Z,80.74
2022-11-20T03:31:21.098Z,80.93
2022-11-20T03:33:49.739Z,81.11
2022-11-20T03:36:21.197Z,81.32
2022-11-20T03:38:50.242Z,81.66
2022-11-20T03:41:22.586Z,81.93
2022-11-20T03:43:52.666Z,81.90
2022-11-20T03:46:21.777Z,81.91
2022-11-20T03:48:52.194Z,81.97
2022-11-20T03:51:22.737Z,82.02
2022-11-20T03:53:53.421Z,82.29
2022-11-20T03:56:29.599Z,82.35
2022-11-20T03:58:59.091Z,82.53
2022-11-20T04:01:31.182Z,82.58
2022-11-20T04:04:01.044Z,82.66
2022-11-20T04:06:35.276Z,82.87
2022-11-20T04:09:03.103Z,82.58
2022-11-20T04:11:34.095Z,82.74
2022-11-20T04:14:05.039Z,83.05
2022-11-20T04:16:37.231Z,83.26
2022-11-20T04:19:11.108Z,83.26
2022-11-20T04:21:39.706Z,83.40
2022-11-20T04:24:09.127Z,83.45
2022-11-20T04:26:40.714Z,83.53
2022-11-20T04:29:12.735Z,83.69
2022-11-20T04:31:42.534Z,83.97
2022-11-20T04:34:13.896Z,84.12
2022-11-20T04:36:43.207Z,84.16
2022-11-20T04:39:15.971Z,84.06
2022-11-20T04:41:45.563Z,84.03
2022-11-20T04:44:14.569Z,84.18
2022-11-20T04:47:06.336Z,84.53
2022-11-20T04:49:36.264Z,84.58
2022-11-20T04:52:05.353Z,84.71
2022-11-20T04:54:36.042Z,84.49
2022-11-20T04:57:07.866Z,84.33
2022-11-20T04:59:39.258Z,84.27
2022-11-20T05:02:08.315Z,84.35
2022-11-20T05:04:37.546Z,84.27
2022-11-20T05:07:12.431Z,84.09
2022-11-20T05:09:41.700Z,83.98
2022-11-20T05:12:11.416Z,83.95
2022-11-20T05:14:40.284Z,83.96
2022-11-20T05:17:16.650Z,84.00
2022-11-20T05:19:52.889Z,83.90
2022-11-20T05:22:22.649Z,83.73
2022-11-20T05:24:51.435Z,83.86
2022-11-20T05:27:20.307Z,83.97
2022-11-20T05:29:49.291Z,84.11
2022-11-20T05:32:17.979Z,84.11
2022-11-20T05:34:46.859Z,84.13
2022-11-20T05:37:15.532Z,84.18
2022-11-20T05:39:45.851Z,84.32
2022-11-20T05:42:31.254Z,84.23
2022-11-20T05:45:01.264Z,84.31
2022-11-20T05:47:33.926Z,84.38
2022-11-20T05:50:03.343Z,84.38
2022-11-20T05:52:32.695Z,84.30
2022-11-20T05:55:07.101Z,84.26
2022-11-20T05:57:36.522Z,84.42
2022-11-20T06:00:08.168Z,84.50
2022-11-20T06:02:37.349Z,84.56
2022-11-20T06:05:07.678Z,84.61
2022-11-20T06:07:36.383Z,84.74
2022-11-20T06:10:07.177Z,85.00
2022-11-20T06:12:35.987Z,84.96
2022-11-20T06:15:07.790Z,85.14
2022-11-20T06:17:36.617Z,85.20
2022-11-20T06:20:09.664Z,85.29
2022-11-20T06:22:38.715Z,85.25
2022-11-20T06:25:09.052Z,85.36
2022-11-20T06:27:37.856Z,85.60
2022-11-20T06:30:12.804Z,85.50
2022-11-20T06:32:41.631Z,85.58
2022-11-20T06:35:13.523Z,85.63
2022-11-20T06:37:43.305Z,85.55
2022-11-20T06:40:15.395Z,85.65
2022-11-20T06:42:44.144Z,85.53
2022-11-20T06:45:13.122Z,85.62
2022-11-20T06:47:42.973Z,85.65
2022-11-20T06:50:12.946Z,85.64
2022-11-20T06:52:43.748Z,85.62
2022-11-20T06:55:12.719Z,85.53
2022-11-20T06:57:43.763Z,85.74
2022-11-20T07:00:16.398Z,85.83
2022-11-20T07:02:45.280Z,85.54
2022-11-20T07:05:14.358Z,85.88
2022-11-20T07:07:47.146Z,85.87
2022-11-20T07:10:16.203Z,85.70
2022-11-20T07:12:52.051Z,85.77
2022-11-20T07:15:24.771Z,85.64
2022-11-20T07:17:57.122Z,85.66
2022-11-20T07:20:28.685Z,85.77
2022-11-20T07:22:58.319Z,85.58
2022-11-20T07:25:31.768Z,85.57
2022-11-20T07:28:00.979Z,85.47
2022-11-20T07:30:31.889Z,85.50
2022-11-20T07:33:00.609Z,85.42
2022-11-20T07:35:31.444Z,85.30
2022-11-20T07:38:02.161Z,85.16
2022-11-20T07:40:30.962Z,85.01
2022-11-20T07:42:59.796Z,84.82
2022-11-20T07:45:29.276Z,84.80
2022-11-20T07:47:57.976Z,84.67
2022-11-20T07:50:28.803Z,84.53
2022-11-20T07:53:03.803Z,84.37
2022-11-20T07:55:34.083Z,84.22
2022-11-20T07:58:02.808Z,84.13
2022-11-20T08:00:31.459Z,83.77
2022-11-20T08:03:00.134Z,83.52
2022-11-20T08:05:29.493Z,83.43
2022-11-20T08:07:59.725Z,83.16
2022-11-20T08:10:28.750Z,83.09
2022-11-20T08:13:15.672Z,82.88
2022-11-20T08:15:50.561Z,82.71
2022-11-20T08:18:37.195Z,82.73
2022-11-20T08:21:07.192Z,82.64
2022-11-20T08:23:42.339Z,81.74
2022-11-20T08:26:11.188Z,80.34
2022-11-20T08:28:39.895Z,80.33
2022-11-20T08:31:10.182Z,80.10
2022-11-20T08:33:39.378Z,80.10
2022-11-20T08:36:09.133Z,80.55
2022-11-20T08:38:37.821Z,78.57
2022-11-20T08:41:39.002Z,78.19
2022-11-20T08:44:09.171Z,79.12
2022-11-20T08:46:52.400Z,78.94
2022-11-20T08:49:23.798Z,78.27
2022-11-20T08:51:55.579Z,78.42
2022-11-20T08:54:24.462Z,77.58
2022-11-20T08:56:53.205Z,78.19
2022-11-20T09:02:12.967Z,77.75
2022-11-20T09:04:43.436Z,77.48
2022-11-20T09:07:14.332Z,78.16
2022-11-20T09:09:44.183Z,77.00
2022-11-20T09:12:12.986Z,76.66
2022-11-20T09:14:41.717Z,76.82
2022-11-20T09:17:14.121Z,76.65
2022-11-20T09:19:43.308Z,76.85
2022-11-20T09:22:13.581Z,77.05
2022-11-20T09:24:49.733Z,76.61
2022-11-20T09:27:21.278Z,76.32
2022-11-20T09:29:51.290Z,77.18
2022-11-20T09:32:22.640Z,76.39
2022-11-20T09:34:51.393Z,76.52
2022-11-20T09:37:20.136Z,75.15
2022-11-20T09:39:49.098Z,69.85
2022-11-20T09:42:38.024Z,71.40
2022-11-20T09:45:24.220Z,59.37
2022-11-20T09:48:09.954Z,54.24
2022-11-20T09:50:44.828Z,52.15
2022-11-20T09:53:22.112Z,49.65
2022-11-20T09:55:51.578Z,50.33
2022-11-20T09:58:30.725Z,45.93
2022-11-20T10:01:10.033Z,45.28
2022-11-20T10:03:46.895Z,44.72
2022-11-20T10:06:22.298Z,44.05
2022-11-20T10:09:02.517Z,48.69
2022-11-20T10:11:45.980Z,42.28
2022-11-20T10:14:28.024Z,42.18
2022-11-20T10:17:09.166Z,44.10
2022-11-20T10:19:56.122Z,41.09
2022-11-20T10:22:45.819Z,42.45
2022-11-20T10:25:18.846Z,38.93
2022-11-20T10:28:00.980Z,40.00
2022-11-20T10:30:31.191Z,40.10
2022-11-20T10:33:05.527Z,39.78
2022-11-20T10:35:40.166Z,39.98
2022-11-20T10:38:17.509Z,37.06
2022-11-20T10:40:49.801Z,38.33
2022-11-20T10:43:32.986Z,38.47
2022-11-20T10:46:06.060Z,40.24
2022-11-20T10:48:37.414Z,38.79
2022-11-20T10:51:19.079Z,39.33
2022-11-20T10:54:10.769Z,40.50
2022-11-20T10:56:48.327Z,40.75
2022-11-20T10:59:45.126Z,43.07
2022-11-20T11:02:21.990Z,41.59
2022-11-20T11:04:52.348Z,42.57
2022-11-20T11:07:25.560Z,43.67
2022-11-20T11:09:56.720Z,44.59
2022-11-20T11:12:29.223Z,46.24
2022-11-20T11:14:58.794Z,48.80
2022-11-20T11:17:41.201Z,50.18
2022-11-20T11:20:18.356Z,51.47
2022-11-20T11:22:49.564Z,53.24
2022-11-20T11:25:25.036Z,54.07
2022-11-20T11:28:00.433Z,55.15
2022-11-20T11:30:41.175Z,56.37
2022-11-20T11:33:13.234Z,57.67
2022-11-20T11:35:51.171Z,58.19
2022-11-20T11:38:30.618Z,59.39
2022-11-20T11:40:59.789Z,59.70
2022-11-20T11:43:51.854Z,60.12
2022-11-20T11:46:33.464Z,60.72
2022-11-20T11:49:16.911Z,61.01
2022-11-20T11:52:00.160Z,61.53
2022-11-20T11:54:35.721Z,61.85
2022-11-20T11:57:13.576Z,62.07
2022-11-20T11:59:59.068Z,62.54
2022-11-20T12:02:50.048Z,62.71
2022-11-20T12:05:24.279Z,62.58
2022-11-20T12:07:57.495Z,62.98
2022-11-20T12:10:41.474Z,63.17
2022-11-20T12:13:23.463Z,63.34
2022-11-20T12:15:52.589Z,63.16
2022-11-20T12:18:23.413Z,63.39
2022-11-20T12:21:12.489Z,63.83
2022-11-20T12:23:53.380Z,63.97
2022-11-20T12:26:36.369Z,64.29
2022-11-20T12:29:13.076Z,64.35
2022-11-20T12:32:20.948Z,64.73
2022-11-20T12:35:11.134Z,64.70
2022-11-20T12:37:54.432Z,65.22
2022-11-20T12:40:36.578Z,65.16
2022-11-20T12:43:35.851Z,65.46
2022-11-20T12:46:23.364Z,65.24
2022-11-20T12:49:24.508Z,65.69
2022-11-20T12:52:09.988Z,65.96
2022-11-20T12:55:02.788Z,66.04
2022-11-20T12:57:50.883Z,66.22
2022-11-20T13:00:23.303Z,66.41
2022-11-20T13:03:27.668Z,66.91
2022-11-20T13:06:06.245Z,67.14
2022-11-20T13:08:37.601Z,67.26
2022-11-20T13:11:15.710Z,67.63
2022-11-20T13:14:00.295Z,67.44
2022-11-20T13:16:35.606Z,67.74
2022-11-20T13:19:12.906Z,68.06
2022-11-20T13:21:50.819Z,67.94
2022-11-20T13:24:27.104Z,68.27
2022-11-20T13:27:05.123Z,68.67
2022-11-20T13:29:38.369Z,68.83
2022-11-20T13:32:17.086Z,68.96
2022-11-20T13:34:56.263Z,68.90
2022-11-20T13:37:37.287Z,68.87
2022-11-20T13:40:23.385Z,68.96
2022-11-20T13:43:05.016Z,69.22
2022-11-20T13:45:34.683Z,69.41
2022-11-20T13:48:19.699Z,69.81
2022-11-20T13:50:59.706Z,69.65
2022-11-20T13:54:10.562Z,70.01
2022-11-20T13:56:57.635Z,69.94
2022-11-20T13:59:49.710Z,70.16
2022-11-20T14:02:21.802Z,70.67
2022-11-20T14:04:54.078Z,70.31
2022-11-20T14:07:29.590Z,70.65
2022-11-20T14:09:58.904Z,70.82
2022-11-20T14:12:31.826Z,71.02
2022-11-20T14:15:01.274Z,71.45
2022-11-20T14:17:33.961Z,71.74
2022-11-20T14:20:23.453Z,71.89
2022-11-20T14:22:52.954Z,71.91
2022-11-20T14:25:23.835Z,71.98
2022-11-20T14:27:55.529Z,72.24
2022-11-20T14:30:26.621Z,72.29
2022-11-20T14:33:01.243Z,72.71
2022-11-20T14:35:34.512Z,72.74
2022-11-20T14:38:04.532Z,72.74
2022-11-20T14:40:36.081Z,73.03
2022-11-20T14:43:19.827Z,73.00
2022-11-20T14:45:55.828Z,73.02
2022-11-20T14:48:30.418Z,73.20
2022-11-20T14:50:59.396Z,73.42
2022-11-20T14:53:28.169Z,73.19
2022-11-20T14:56:01.283Z,73.51
2022-11-20T14:58:33.877Z,73.75
2022-11-20T15:01:05.344Z,74.22
2022-11-20T15:03:35.956Z,74.07
2022-11-20T15:06:05.474Z,73.99
2022-11-20T15:08:35.155Z,75.14
2022-11-20T15:11:17.570Z,75.39
2022-11-20T15:13:46.659Z,76.41
2022-11-20T15:16:21.166Z,77.01
2022-11-20T15:18:50.994Z,76.39
2022-11-20T15:21:23.018Z,77.64
2022-11-20T15:23:52.696Z,78.16
2022-11-20T15:26:26.284Z,78.25
2022-11-20T15:28:56.306Z,78.60
2022-11-20T15:31:25.553Z,78.63
2022-11-20T15:33:54.793Z,78.98
2022-11-20T15:36:23.602Z,78.88
2022-11-20T15:38:52.523Z,77.99
2022-11-20T15:41:21.191Z,78.83
2022-11-20T15:43:50.453Z,79.41
2022-11-20T15:46:27.774Z,79.34
2022-11-20T15:49:15.767Z,79.35
2022-11-20T15:51:48.122Z,79.78
2022-11-20T15:54:20.786Z,79.58
2022-11-20T15:56:57.310Z,79.70
2022-11-20T15:59:26.190Z,78.81
2022-11-20T16:01:55.402Z,79.95
2022-11-20T16:04:24.419Z,79.66
2022-11-20T16:06:53.468Z,79.75
2022-11-20T16:09:22.101Z,79.90
2022-11-20T16:11:51.450Z,80.47
2022-11-20T16:14:38.902Z,80.57
2022-11-20T16:17:07.599Z,80.69
2022-11-20T16:19:37.174Z,81.88
2022-11-20T16:22:05.923Z,81.90
2022-11-20T16:24:34.903Z,81.61
2022-11-20T16:27:03.820Z,81.56
2022-11-20T16:29:32.554Z,82.42
2022-11-20T16:32:01.271Z,82.39
2022-11-20T16:34:32.733Z,82.48
2022-11-20T16:37:02.015Z,82.36
2022-11-20T16:39:31.327Z,82.66
2022-11-20T16:42:05.710Z,82.04
2022-11-20T16:44:34.915Z,82.56
2022-11-20T16:47:03.819Z,82.82
2022-11-20T16:49:32.707Z,82.91
2022-11-20T16:52:02.020Z,82.82
2022-11-20T16:54:33.579Z,83.25
2022-11-20T16:57:02.233Z,83.62
2022-11-20T16:59:32.184Z,83.65
2022-11-20T17:02:01.221Z,82.27
2022-11-20T17:04:32.209Z,83.10
2022-11-20T17:07:07.683Z,83.85
2022-11-20T17:09:37.140Z,83.34
2022-11-20T17:12:07.470Z,83.98
2022-11-20T17:14:36.309Z,84.56
2022-11-20T17:17:05.859Z,84.62
2022-11-20T17:19:34.777Z,84.58
2022-11-20T17:22:04.872Z,84.82
2022-11-20T17:24:34.662Z,84.82
2022-11-20T17:27:04.225Z,84.05
2022-11-20T17:29:37.849Z,84.49
2022-11-20T17:32:11.886Z,84.95
2022-11-20T17:34:41.130Z,85.15
2022-11-20T17:37:10.958Z,84.93
2022-11-20T17:39:40.425Z,85.20
2022-11-20T17:42:32.969Z,85.36
2022-11-20T17:45:02.251Z,85.53
2022-11-20T17:47:42.647Z,85.09
2022-11-20T17:50:12.492Z,85.07
2022-11-20T17:52:45.268Z,84.60
2022-11-20T17:55:14.331Z,84.53
2022-11-20T17:57:52.906Z,84.85
2022-11-20T18:00:22.367Z,84.52
2022-11-20T18:02:51.284Z,84.42
2022-11-20T18:05:21.947Z,84.54
2022-11-20T18:07:54.117Z,85.00
2022-11-20T18:10:23.653Z,84.92
2022-11-20T18:12:54.087Z,85.15
2022-11-20T18:15:23.805Z,85.04
2022-11-20T18:17:52.761Z,85.29
2022-11-20T18:20:32.007Z,85.31
2022-11-20T18:23:02.849Z,85.85
2022-11-20T18:25:33.957Z,86.10
2022-11-20T18:28:04.830Z,86.16
2022-11-20T18:30:36.490Z,86.05
2022-11-20T18:33:06.541Z,86.20
2022-11-20T18:35:35.825Z,86.04
2022-11-20T18:38:04.923Z,85.65
2022-11-20T18:40:35.856Z,85.62
2022-11-20T18:43:24.220Z,85.53
2022-11-20T18:46:05.479Z,85.27
2022-11-20T18:48:36.314Z,85.33
2022-11-20T18:51:08.284Z,85.38
2022-11-20T18:53:40.840Z,85.30
2022-11-20T18:56:20.003Z,85.46
2022-11-20T18:58:49.712Z,85.41
2022-11-20T19:01:21.721Z,85.46
2022-11-20T19:03:52.400Z,85.04
2022-11-20T19:06:21.796Z,85.23
2022-11-20T19:08:51.262Z,85.42
2022-11-20T19:11:20.147Z,85.72
2022-11-20T19:13:59.689Z,85.69
2022-11-20T19:16:38.607Z,85.92
2022-11-20T19:19:07.780Z,86.39
2022-11-20T19:21:37.983Z,86.25
2022-11-20T19:24:08.997Z,86.78
2022-11-20T19:26:45.858Z,86.80
2022-11-20T19:29:17.250Z,86.50
2022-11-20T19:31:48.422Z,86.31
2022-11-20T19:34:17.437Z,86.78
2022-11-20T19:36:46.710Z,86.74
2022-11-20T19:39:16.014Z,86.23
2022-11-20T19:41:45.012Z,86.76
2022-11-20T19:44:17.757Z,86.88
2022-11-20T19:46:47.459Z,86.73
2022-11-20T19:49:16.857Z,86.55
2022-11-20T19:51:47.667Z,86.59
2022-11-20T19:54:18.974Z,86.23
2022-11-20T19:56:49.239Z,86.49
2022-11-20T19:59:18.043Z,86.76
2022-11-20T20:01:47.044Z,86.90
2022-11-20T20:04:15.857Z,87.06
2022-11-20T20:06:44.752Z,87.57
2022-11-20T20:09:18.849Z,88.06
2022-11-20T20:11:49.088Z,88.21
2022-11-20T20:14:21.949Z,88.21
2022-11-20T20:16:51.548Z,88.24
2022-11-20T20:19:23.826Z,89.17
2022-11-20T20:21:54.699Z,88.86
2022-11-20T20:24:28.126Z,88.95
2022-11-20T20:27:00.489Z,89.25
2022-11-20T20:29:29.442Z,89.18
2022-11-20T20:32:00.342Z,89.39
2022-11-20T20:34:31.718Z,89.15
2022-11-20T20:37:03.958Z,89.02
2022-11-20T20:39:34.497Z,88.53
2022-11-20T20:42:06.747Z,88.78
2022-11-20T20:44:57.173Z,88.78
2022-11-20T20:47:31.171Z,88.62
2022-11-20T20:50:00.415Z,88.29
2022-11-20T20:52:29.404Z,88.21
2022-11-20T20:55:00.839Z,88.12
2022-11-20T20:57:29.986Z,88.33
2022-11-20T20:59:59.798Z,88.03
2022-11-20T21:02:28.976Z,87.67
2022-11-20T21:04:59.597Z,87.81
2022-11-20T21:07:29.836Z,87.91
2022-11-20T21:09:59.017Z,87.99
2022-11-20T21:12:29.999Z,88.05
2022-11-20T21:14:59.521Z,88.00
2022-11-20T21:17:29.400Z,88.01
2022-11-20T21:20:00.128Z,88.05
2022-11-20T21:22:36.221Z,87.82
2022-11-20T21:25:09.983Z,87.80
2022-11-20T21:28:01.163Z,87.82
2022-11-20T21:30:30.623Z,87.81
2022-11-20T21:33:02.607Z,87.89
2022-11-20T21:35:35.123Z,87.86
2022-11-20T21:38:05.096Z,87.76
2022-11-20T21:40:36.854Z,87.83
2022-11-20T21:43:05.885Z,87.78
2022-11-20T21:45:35.760Z,87.76
2022-11-20T21:48:06.300Z,87.65
2022-11-20T21:50:38.645Z,87.66
2022-11-20T21:53:07.552Z,87.63
2022-11-20T21:55:36.581Z,87.70
2022-11-20T21:58:05.631Z,87.71
2022-11-20T22:00:36.159Z,87.63
2022-11-20T22:03:06.107Z,87.51
2022-11-20T22:05:35.563Z,87.53
2022-11-20T22:08:05.169Z,87.39
2022-11-20T22:10:36.420Z,87.50
2022-11-20T22:13:25.423Z,87.50
2022-11-20T22:16:02.492Z,87.69
2022-11-20T22:18:31.694Z,87.67
2022-11-20T22:21:06.000Z,87.77
2022-11-20T22:23:38.558Z,87.80
2022-11-20T22:26:09.714Z,87.71
2022-11-20T22:28:39.308Z,87.77
2022-11-20T22:31:12.016Z,87.78
2022-11-20T22:33:41.398Z,87.74
2022-11-20T22:36:13.069Z,87.80
2022-11-20T22:38:42.971Z,87.70
2022-11-20T22:41:13.827Z,87.59
2022-11-20T22:43:47.294Z,87.56
2022-11-20T22:46:18.595Z,87.59
2022-11-20T22:48:52.820Z,87.53
2022-11-20T22:51:24.346Z,87.59
2022-11-20T22:53:55.420Z,87.46
2022-11-20T22:56:24.774Z,87.44
2022-11-20T22:58:56.270Z,87.50
2022-11-20T23:01:30.070Z,87.52
2022-11-20T23:04:05.523Z,87.42
2022-11-20T23:06:36.665Z,87.43
2022-11-20T23:09:08.344Z,87.45
2022-11-20T23:11:37.364Z,87.50
2022-11-20T23:14:10.384Z,87.61
2022-11-20T23:16:42.938Z,87.63
2022-11-20T23:19:14.217Z,87.63
2022-11-20T23:21:43.502Z,87.85
2022-11-20T23:24:12.363Z,88.09
2022-11-20T23:26:44.742Z,88.16
2022-11-20T23:29:14.874Z,88.16
2022-11-20T23:31:47.736Z,88.30
2022-11-20T23:34:19.035Z,88.25
2022-11-20T23:36:49.875Z,88.31
2022-11-20T23:39:18.734Z,88.30
2022-11-20T23:41:47.841Z,88.42
2022-11-20T23:44:16.901Z,88.56
2022-11-20T23:46:50.653Z,88.68
2022-11-20T23:49:20.190Z,88.81
2022-11-20T23:51:48.898Z,88.88
2022-11-20T23:54:21.324Z,88.92
2022-11-20T23:56:50.406Z,89.03
2022-11-20T23:59:19.527Z,89.32
